EW1544 Yarmouth MA US current weather conditions

sailwx.info

Wind from 052 at 1 knots gusting 3

Air temperature 1.7° C
Dewpoint 1.1° C

Last reported at 2020-Jan-25 10:04 UTC.
Time now 2020-Jan-25 10:25 UTC

Location: N 41°40' W 070°15'.
View on Google Maps.

See reports from other nearby stations

  
Tides and Currents Weather Stations Pressure Air Temp Water Temp Dewpoint Dewpoint Depression Visibility Wind Speed Wind Dir Waves Ship Positions
date/time (UTC)wind fromknots sea level pressurealtimeterstation pressurevisibilityair tempwater tempwave heightnotes
2020-Jan-25 10:04 052 1 gusting 3 1.7
2020-Jan-25 09:54 054 0 gusting 5 1.1
2020-Jan-25 09:44 070 0 gusting 3 1.1
2020-Jan-25 09:34 068 0 gusting 3 1.1
2020-Jan-25 09:24 076 0 gusting 2 1.1
2020-Jan-25 09:14 073 0 gusting 3 1.1
2020-Jan-25 09:04 061 0 gusting 3 0.6
2020-Jan-25 08:54 056 0 gusting 3 0.6
2020-Jan-25 08:44 058 0 gusting 3 0.6
2020-Jan-25 08:34 052 1 gusting 3 -0.0
2020-Jan-25 08:24 067 0 gusting 2 -0.0
2020-Jan-25 08:14 053 0 gusting 2 -0.0
2020-Jan-25 08:04 057 0 gusting 2 0.6
2020-Jan-25 07:54 051 0 gusting 1 0.6
2020-Jan-25 07:44 055 0.6
2020-Jan-25 07:34 057 0 gusting 2 0.6
2020-Jan-25 07:24 061 1.1
2020-Jan-25 07:14 063 1.1
2020-Jan-25 07:04 079 0 gusting 2 1.7
2020-Jan-25 06:54 057 0 gusting 2 1.7
2020-Jan-25 06:44 060 0 gusting 1 2.2
2020-Jan-25 06:34 066 0 gusting 1 2.2
2020-Jan-25 06:24 071 0 gusting 2 2.2
2020-Jan-25 06:14 088 0 gusting 3 2.2
2020-Jan-25 06:04 095 0 gusting 2 1.7
2020-Jan-25 05:54 094 0 gusting 1 1.7
2020-Jan-25 05:44 096 1.7
2020-Jan-25 05:34 085 0 gusting 6 1.7
2020-Jan-25 05:24 101 0 gusting 5 1.1
2020-Jan-25 05:14 093 0 gusting 2 0.6
2020-Jan-25 05:04 087 0 gusting 2 0.6
2020-Jan-25 04:54 078 0 gusting 2 0.6
2020-Jan-25 04:44 077 0 gusting 1 0.6
2020-Jan-25 04:34 083 0.6
2020-Jan-25 04:24 084 0.6
2020-Jan-25 04:14 090 0.6
2020-Jan-25 04:04 054 0 gusting 3 0.6
2020-Jan-25 03:54 055 0.6
2020-Jan-25 03:44 057 0.6
2020-Jan-25 03:34 057 0.6
2020-Jan-25 03:24 058 1.1
2020-Jan-25 03:14 060 1.1
2020-Jan-25 03:04 058 1.1
2020-Jan-25 02:54 060 0 gusting 3 1.1
2020-Jan-25 02:44 055 0 gusting 2 1.1
2020-Jan-25 02:34 059 1.1
2020-Jan-25 02:24 063 0.6
2020-Jan-25 02:14 051 0 gusting 4 0.6
2020-Jan-25 02:04 062 0 gusting 1 0.6
2020-Jan-25 01:54 059 0 gusting 1 0.6
2020-Jan-25 01:44 051 -0.0
2020-Jan-25 01:34 051 0 gusting 2 -0.0
2020-Jan-25 01:24 053 -0.0
2020-Jan-25 01:14 058 -0.6
2020-Jan-25 01:04 048 -0.6
2020-Jan-25 00:54 046 -0.6
2020-Jan-25 00:44 052 -0.6
2020-Jan-25 00:34 063 -0.6
2020-Jan-25 00:24 069 -0.0
2020-Jan-25 00:14 073 -0.0
2020-Jan-25 00:04 069 -0.0
2020-Jan-24 23:54 057 -0.0
2020-Jan-24 23:44 058 -0.0
2020-Jan-24 23:34 062 0 gusting 2 0.6
2020-Jan-24 23:24 073 1.1
2020-Jan-24 23:14 073 1.1
2020-Jan-24 23:04 074 1.7
2020-Jan-24 22:54 074 2.2
2020-Jan-24 22:44 074 2.8
2020-Jan-24 22:34 074 2.8
2020-Jan-24 22:24 074 3.3
2020-Jan-24 22:14 074 3.3
2020-Jan-24 22:04 079 0 gusting 2 3.9
2020-Jan-24 21:54 158 4.4
2020-Jan-24 21:44 159 5.0
2020-Jan-24 21:34 157 5.6
2020-Jan-24 21:24 155 5.6
2020-Jan-24 21:14 132 0 gusting 6 6.1
2020-Jan-24 21:04 120 0 gusting 6 6.1
2020-Jan-24 20:54 151 1 gusting 4 6.7
2020-Jan-24 20:44 104 1 gusting 6 6.7
2020-Jan-24 20:34 055 1 gusting 5 6.7
2020-Jan-24 20:24 059 2 gusting 6 6.7
2020-Jan-24 20:14 097 3 gusting 6 6.7
2020-Jan-24 20:04 021 3 gusting 7 6.7
2020-Jan-24 19:54 045 1 gusting 6 6.1
2020-Jan-24 19:44 030 1 gusting 7 6.1
2020-Jan-24 19:34 025 2 gusting 8 6.7
2020-Jan-24 19:24 018 2 gusting 6 7.2
2020-Jan-24 19:14 7.2
2020-Jan-24 19:04 340 1 gusting 6 7.8
2020-Jan-24 18:54 347 2 gusting 6 7.8
2020-Jan-24 18:44 329 2 gusting 6 8.3
2020-Jan-24 18:34 320 1 gusting 6 8.3
2020-Jan-24 18:24 018 3 gusting 6 8.3
2020-Jan-24 18:14 341 2 gusting 6 8.9
2020-Jan-24 18:04 340 2 gusting 6 8.9
2020-Jan-24 17:54 022 2 gusting 6 8.9
2020-Jan-24 17:44 013 0 gusting 6 8.9
2020-Jan-24 17:34 303 2 gusting 7 8.9
2020-Jan-24 17:24 016 1 gusting 6 8.9
2020-Jan-24 17:14 002 4 gusting 7 8.9
2020-Jan-24 17:04 017 2 gusting 5 8.9
2020-Jan-24 16:54 038 1 gusting 6 8.9
2020-Jan-24 16:44 002 2 gusting 6 8.9
2020-Jan-24 16:34 039 1 gusting 5 8.9
2020-Jan-24 16:24 014 2 gusting 5 8.9
2020-Jan-24 16:14 097 0 gusting 3 8.3
2020-Jan-24 16:04 122 0 gusting 3 7.8
2020-Jan-24 15:54 096 6.7
2020-Jan-24 15:44 097 0 gusting 2 6.1
2020-Jan-24 15:34 125 5.0
2020-Jan-24 15:24 080 0 gusting 2 4.4
2020-Jan-24 15:14 112 1 gusting 3 3.9
2020-Jan-24 15:04 116 3.3
2020-Jan-24 14:54 107 2.8
2020-Jan-24 14:44 120 2.2
2020-Jan-24 14:34 055 0 gusting 2 1.1
2020-Jan-24 14:24 061 0 gusting 3 -0.0
2020-Jan-24 14:14 031 0 gusting 2 -0.6
2020-Jan-24 14:04 009 -1.1
2020-Jan-24 13:54 009 -1.7
2020-Jan-24 13:44 010 -1.7
2020-Jan-24 13:34 010 -2.2
2020-Jan-24 13:24 010 -2.2
2020-Jan-24 13:14 005 -2.8
2020-Jan-24 13:04 003 -2.8
2020-Jan-24 12:54 001 -2.8
2020-Jan-24 12:44 001 -2.8
2020-Jan-24 12:34 359 -2.8
2020-Jan-24 12:24 360 -2.8
2020-Jan-24 12:14 354 -2.8
2020-Jan-24 11:44 297 -2.8
2020-Jan-24 11:34 297 -2.2
2020-Jan-24 11:24 297 -2.2
2020-Jan-24 11:14 264 -2.2
2020-Jan-24 11:04 266 -2.2
2020-Jan-24 10:54 267 -2.2
2020-Jan-24 10:44 267 -2.2
2020-Jan-24 10:34 271 -2.2
2020-Jan-24 10:24 274 -2.2
2020-Jan-24 10:14 278 -2.2
2020-Jan-24 10:04 278 -2.2
2020-Jan-24 09:54 279 -2.2
2020-Jan-24 09:44 280 -2.2
2020-Jan-24 09:34 279 -2.2
2020-Jan-24 09:24 279 -2.2
2020-Jan-24 09:14 279 -2.2
2020-Jan-24 09:04 279 -2.2
2020-Jan-24 08:54 282 -1.7
2020-Jan-24 08:44 282 -1.7
2020-Jan-24 08:34 281 -1.7
2020-Jan-24 08:24 282 -1.7
2020-Jan-24 08:14 283 -1.7
2020-Jan-24 08:04 284 -1.7
2020-Jan-24 07:54 286 -1.7
2020-Jan-24 07:44 288 -1.7
2020-Jan-24 07:34 289 -1.7
2020-Jan-24 07:24 290 -1.7
2020-Jan-24 07:14 293 -1.7
2020-Jan-24 07:04 293 -1.1
2020-Jan-24 06:54 263 -1.1
2020-Jan-24 06:44 222 -1.1
2020-Jan-24 06:34 228 -1.1
2020-Jan-24 06:24 232 -1.1
2020-Jan-24 06:14 228 -1.1
2020-Jan-24 06:04 245 -1.1
2020-Jan-24 05:54 247 -0.6
2020-Jan-24 05:44 247 -0.6
2020-Jan-24 05:34 234 -0.6
2020-Jan-24 05:24 242 -0.6
2020-Jan-24 05:14 233 0 gusting 1 -0.6
2020-Jan-24 05:04 197 -0.0
2020-Jan-24 04:54 194 -0.0
2020-Jan-24 04:44 193 -0.0
2020-Jan-24 04:34 208 0 gusting 0 -0.0
2020-Jan-24 04:24 220 0.6
2020-Jan-24 04:14 232 0 gusting 2 0.6
2020-Jan-24 04:04 232 0.6
2020-Jan-24 03:54 222 0.6
2020-Jan-24 03:44 238 0.6
2020-Jan-24 03:34 241 0.6
2020-Jan-24 03:24 231 0 gusting 2 1.1
2020-Jan-24 03:14 232 0 gusting 3 1.1
2020-Jan-24 03:04 233 0 gusting 2 1.1
2020-Jan-24 02:54 232 0 gusting 2 1.1
2020-Jan-24 02:44 222 1.1
2020-Jan-24 02:34 225 1.1
2020-Jan-24 02:24 212 1.7
2020-Jan-24 02:14 203 1.7
2020-Jan-24 02:04 227 1.7
2020-Jan-24 01:54 200 1.7
2020-Jan-24 01:44 218 1 gusting 4 1.7
2020-Jan-24 01:34 204 1 gusting 4 1.7
2020-Jan-24 01:24 248 0 gusting 5 2.2
2020-Jan-24 01:14 205 0 gusting 5 1.7
2020-Jan-24 01:04 219 0 gusting 3 1.7
2020-Jan-24 00:54 205 1 gusting 5 1.7
2020-Jan-24 00:44 214 2 gusting 5 1.7
2020-Jan-24 00:34 235 1 gusting 4 1.7
2020-Jan-24 00:24 229 1 gusting 4 1.7
2020-Jan-24 00:14 238 0 gusting 4 2.2
2020-Jan-24 00:04 208 1 gusting 4 2.2
2020-Jan-23 23:54 209 0 gusting 3 2.2
2020-Jan-23 23:44 205 0 gusting 3 2.2
2020-Jan-23 23:34 226 0 gusting 4 2.2
2020-Jan-23 23:24 210 1 gusting 5 2.2
2020-Jan-23 23:14 209 1 gusting 3 2.2
2020-Jan-23 23:04 211 0 gusting 3 2.8
2020-Jan-23 22:54 203 0 gusting 3 2.8
2020-Jan-23 22:44 207 1 gusting 6 2.8
2020-Jan-23 22:34 241 1 gusting 6 2.8
2020-Jan-23 22:24 214 2 gusting 6 3.3
2020-Jan-23 22:14 227 2 gusting 6 3.3
2020-Jan-23 22:04 269 3 gusting 7 3.3
2020-Jan-23 21:54 230 2 gusting 6 3.3
2020-Jan-23 21:44 208 1 gusting 8 3.3
2020-Jan-23 21:34 220 0 gusting 6 3.9
2020-Jan-23 21:24 230 2 gusting 6 3.9
2020-Jan-23 21:14 214 0 gusting 5 3.9
2020-Jan-23 21:04 233 2 gusting 6 4.4
2020-Jan-23 20:54 205 0 gusting 6 4.4
2020-Jan-23 20:44 240 3 gusting 6 4.4
2020-Jan-23 20:34 231 2 gusting 6 5.0
2020-Jan-23 20:24 211 3 gusting 8 5.6
2020-Jan-23 20:14 190 2 gusting 7 5.6
2020-Jan-23 20:04 191 0 gusting 7 6.1
2020-Jan-23 19:54 210 1 gusting 6 5.6
2020-Jan-23 19:44 238 2 gusting 7 5.6
2020-Jan-23 19:34 215 2 gusting 6 5.6
2020-Jan-23 19:24 222 1 gusting 9 6.1
2020-Jan-23 19:14 202 5 gusting 10 6.1
2020-Jan-23 19:04 209 5 gusting 13 6.1
2020-Jan-23 18:54 206 5 gusting 13 6.7
2020-Jan-23 18:44 235 3 gusting 7 6.7
2020-Jan-23 18:34 228 4 gusting 11 6.7
2020-Jan-23 18:24 213 4 gusting 10 7.2
2020-Jan-23 18:14 225 3 gusting 10 7.2
2020-Jan-23 18:04 189 2 gusting 8 7.2
2020-Jan-23 17:54 204 4 gusting 8 7.2
2020-Jan-23 17:44 219 4 gusting 11 6.7
2020-Jan-23 17:34 199 1 gusting 12 6.7
2020-Jan-23 17:24 206 5 gusting 9 6.7
2020-Jan-23 17:14 236 4 gusting 12 6.1
2020-Jan-23 17:04 241 3 gusting 12 6.1
2020-Jan-23 16:54 208 3 gusting 12 6.1
2020-Jan-23 16:44 207 2 gusting 9 6.1
2020-Jan-23 16:34 210 3 gusting 13 6.1
2020-Jan-23 16:24 250 2 gusting 10 6.1
2020-Jan-23 16:14 214 5 gusting 12 5.6
2020-Jan-23 16:04 208 2 gusting 9 5.6
2020-Jan-23 15:54 205 2 gusting 8 5.6
2020-Jan-23 15:44 195 4 gusting 12 5.0
2020-Jan-23 15:34 242 2 gusting 10 4.4
2020-Jan-23 15:24 258 3 gusting 10 3.9
2020-Jan-23 15:14 197 3 gusting 10 3.9
2020-Jan-23 15:04 205 3 gusting 7 3.3
2020-Jan-23 14:54 217 0 gusting 8 3.3
2020-Jan-23 14:44 223 3 gusting 7 2.8
2020-Jan-23 14:34 212 3 gusting 6 2.2
2020-Jan-23 14:24 198 1 gusting 5 1.1
2020-Jan-23 14:14 235 1 gusting 6 -0.0
2020-Jan-23 14:04 215 1 gusting 5 -1.1
2020-Jan-23 13:54 204 2 gusting 4 -2.2
2020-Jan-23 13:44 185 0 gusting 3 -3.3
2020-Jan-23 13:34 203 0 gusting 3 -3.9
2020-Jan-23 13:24 215 0 gusting 3 -4.4
2020-Jan-23 13:14 246 -4.4
2020-Jan-23 13:04 260 0 gusting 2 -5.0
2020-Jan-23 12:54 232 0 gusting 2 -5.0
2020-Jan-23 12:44 235 -5.6
2020-Jan-23 12:34 267 0 gusting 4 -5.6
2020-Jan-23 12:24 233 0 gusting 3 -5.6
2020-Jan-23 12:14 268 0 gusting 1 -6.1
2020-Jan-23 12:04 216 -6.1
2020-Jan-23 11:54 215 -6.1
2020-Jan-23 11:44 201 -6.7
2020-Jan-23 11:34 232 -6.7
2020-Jan-23 11:24 222 -6.7
2020-Jan-23 11:14 218 -6.7
2020-Jan-23 11:04 215 -6.7
2020-Jan-23 10:54 209 -6.7
2020-Jan-23 10:44 212 -6.7
2020-Jan-23 10:34 185 -6.7
2020-Jan-23 10:24 222 -7.2
2020-Jan-23 10:14 215 -7.2
2020-Jan-23 10:04 197 -7.2